HAZ6305 ZSHC-RJTT
Flight info
| Callsign | HAZ6305 |
|---|---|
| Flight time | N/A |
| Altitude | 39100 |
| Route | OKTUG B221 NINAS G327 LAMEN/N0459F390 A593 SADLI Y590 BEDAR Y591 FUE Y23 ARTIC Y71 XAC |
| Aircraft | A339/H-SADE1E2E3GHIJ3J5M1P2RWXY/LB2D1 |
Departure
| Time | N/A |
|---|---|
| Airport | Hangzhou Xiaoshan International Airport (ZSHC) |
Arrival
| Time | 2026-05-01 07:30 |
|---|---|
| Airport | Tokyo Haneda International Airport (RJTT) |
| Time | Latitude | Longitude | Altitude | Speed | Heading |
|---|---|---|---|---|---|
| 2026-05-01 07:23 | 35.53114 | 140.01247 | 2985 ft | 268 kts | 46° |
| 2026-05-01 07:23 | 35.56220 | 140.03566 | 2930 ft | 262 kts | 359° |
| 2026-05-01 07:24 | 35.58007 | 140.03470 | 2882 ft | 254 kts | 339° |
| 2026-05-01 07:24 | 35.59463 | 140.02495 | 2917 ft | 222 kts | 304° |
| 2026-05-01 07:24 | 35.60187 | 140.00998 | 2949 ft | 191 kts | 276° |
| 2026-05-01 07:24 | 35.60416 | 139.99475 | 2952 ft | 172 kts | 264° |
| 2026-05-01 07:25 | 35.60468 | 139.98041 | 2837 ft | 163 kts | 262° |
| 2026-05-01 07:25 | 35.60473 | 139.96719 | 2708 ft | 152 kts | 260° |
| 2026-05-01 07:25 | 35.60458 | 139.95415 | 2506 ft | 152 kts | 260° |
| 2026-05-01 07:25 | 35.60447 | 139.94151 | 2361 ft | 142 kts | 260° |
| 2026-05-01 07:26 | 35.60440 | 139.92949 | 2249 ft | 138 kts | 259° |
| 2026-05-01 07:26 | 35.60433 | 139.91792 | 2099 ft | 133 kts | 259° |
| 2026-05-01 07:26 | 35.60426 | 139.90663 | 1816 ft | 134 kts | 259° |
| 2026-05-01 07:26 | 35.60419 | 139.89517 | 1527 ft | 135 kts | 260° |
| 2026-05-01 07:27 | 35.60413 | 139.88365 | 1222 ft | 136 kts | 263° |
| 2026-05-01 07:27 | 35.60409 | 139.87212 | 1004 ft | 131 kts | 262° |
| 2026-05-01 07:27 | 35.60403 | 139.86084 | 1009 ft | 134 kts | 263° |
| 2026-05-01 07:27 | 35.60394 | 139.84917 | 1007 ft | 135 kts | 263° |
| 2026-05-01 07:28 | 35.60363 | 139.83751 | 994 ft | 136 kts | 252° |
| 2026-05-01 07:28 | 35.60149 | 139.82636 | 1004 ft | 135 kts | 250° |
| 2026-05-01 07:28 | 35.59910 | 139.81520 | 978 ft | 134 kts | 248° |
| 2026-05-01 07:28 | 35.59555 | 139.80458 | 830 ft | 133 kts | 236° |
| 2026-05-01 07:29 | 35.58971 | 139.79602 | 619 ft | 132 kts | 214° |
| 2026-05-01 07:29 | 35.58206 | 139.78967 | 454 ft | 133 kts | 211° |
| 2026-05-01 07:29 | 35.57441 | 139.78325 | 263 ft | 134 kts | 215° |
| 2026-05-01 07:29 | 35.56695 | 139.77667 | 85 ft | 132 kts | 214° |
| 2026-05-01 07:30 | 35.56009 | 139.77084 | 30 ft | 86 kts | 211° |
| 2026-05-01 07:30 | 35.55738 | 139.76846 | 31 ft | 22 kts | 213° |
| 2026-05-01 07:30 | 35.55662 | 139.76855 | 31 ft | 10 kts | 137° |
| 2026-05-01 07:30 | 35.55620 | 139.76912 | 32 ft | 6 kts | 136° |
| 2026-05-01 07:31 | 35.55581 | 139.76941 | 32 ft | 7 kts | 150° |
| 2026-05-01 07:31 | 35.55447 | 139.77040 | 34 ft | 7 kts | 148° |
| 2026-05-01 07:32 | 35.55347 | 139.77113 | 36 ft | 9 kts | 149° |
| 2026-05-01 07:32 | 35.55288 | 139.77156 | 36 ft | 10 kts | 150° |
| 2026-05-01 07:33 | 35.55138 | 139.77258 | 35 ft | 13 kts | 150° |
| 2026-05-01 07:33 | 35.55056 | 139.77316 | 34 ft | 13 kts | 151° |
| 2026-05-01 07:33 | 35.54930 | 139.77403 | 34 ft | 7 kts | 163° |
| 2026-05-01 07:34 | 35.54882 | 139.77397 | 34 ft | 5 kts | 222° |
| 2026-05-01 07:34 | 35.54823 | 139.77296 | 33 ft | 9 kts | 237° |
| 2026-05-01 07:34 | 35.54787 | 139.77222 | 32 ft | 9 kts | 240° |
| 2026-05-01 07:35 | 35.54762 | 139.77162 | 32 ft | 7 kts | 245° |
| 2026-05-01 07:35 | 35.54755 | 139.77130 | 32 ft | 3 kts | 270° |
| 2026-05-01 07:35 | 35.54755 | 139.77089 | 32 ft | 5 kts | 270° |
| 2026-05-01 07:35 | 35.54752 | 139.77037 | 33 ft | 5 kts | 257° |
| 2026-05-01 07:36 | 35.54740 | 139.77008 | 33 ft | 4 kts | 240° |
| 2026-05-01 07:36 | 35.54724 | 139.76976 | 34 ft | 4 kts | 240° |
| 2026-05-01 07:36 | 35.54709 | 139.76941 | 34 ft | 4 kts | 240° |
| 2026-05-01 07:36 | 35.54704 | 139.76932 | 35 ft | 0 kts | 240° |